Time;durP1;ratioP1;P1;durP2;ratioP2;P2;SDS_P1;SDS_P2;PMS_P1;PMS_P2;Temp;Humidity;BMP_temperature;BMP_pressure;BME280_temperature;BME280_humidity;BME280_pressure;Samples;Min_cycle;Max_cycle;Signal;HPM_P1;HPM_P2
2021/08/09 00:02:20;;;;;;;17.67;13.55;;;;;;;22.15;100.00;100572.08;1617573;87;21139;-85
2021/08/09 00:04:47;;;;;;;15.28;13.75;;;;;;;22.28;100.00;100576.63;1600122;88;21111;-89
2021/08/09 00:07:14;;;;;;;15.10;13.08;;;;;;;22.35;100.00;100574.34;1642831;85;21098;-83
2021/08/09 00:09:41;;;;;;;14.10;12.60;;;;;;;22.38;100.00;100575.30;1668459;84;21165;-86
2021/08/09 00:12:08;;;;;;;18.07;13.60;;;;;;;22.40;100.00;100571.15;1674116;85;21070;-87
2021/08/09 00:14:38;;;;;;;16.17;13.68;;;;;;;22.43;100.00;100565.47;1650865;85;20981;-87
2021/08/09 00:17:05;;;;;;;14.47;12.90;;;;;;;22.44;100.00;100566.27;1649514;85;21117;-87
2021/08/09 00:19:34;;;;;;;16.05;12.95;;;;;;;22.47;100.00;100568.55;1673458;85;21142;-89
2021/08/09 00:22:01;;;;;;;15.95;12.37;;;;;;;22.51;100.00;100568.45;1673011;85;21250;-86
2021/08/09 00:24:28;;;;;;;18.07;12.78;;;;;;;22.55;100.00;100568.39;1684451;84;21121;-85
2021/08/09 00:26:55;;;;;;;16.75;13.18;;;;;;;22.57;100.00;100564.20;1672752;83;21102;-86
2021/08/09 00:29:24;;;;;;;20.65;14.47;;;;;;;22.59;100.00;100559.01;1685056;83;22052;-86
2021/08/09 00:31:52;;;;;;;18.95;13.08;;;;;;;22.58;100.00;100561.34;1672625;84;21529;-86
2021/08/09 00:34:19;;;;;;;18.57;13.20;;;;;;;22.54;100.00;100558.79;1668621;84;21067;-89
2021/08/09 00:36:47;;;;;;;14.80;12.80;;;;;;;22.50;100.00;100562.83;1680124;85;21461;-86
2021/08/09 00:39:15;;;;;;;14.25;12.90;;;;;;;22.49;100.00;100563.84;1686669;84;21023;-88
2021/08/09 00:41:43;;;;;;;19.27;13.32;;;;;;;22.40;100.00;100559.21;1678753;85;21088;-86
2021/08/09 00:44:10;;;;;;;15.18;13.45;;;;;;;22.20;100.00;100554.55;1622750;86;21034;-87
2021/08/09 00:46:38;;;;;;;15.90;14.38;;;;;;;22.10;100.00;100563.87;1637639;86;21088;-86
2021/08/09 00:49:06;;;;;;;16.65;13.15;;;;;;;22.11;100.00;100563.70;1640866;86;21106;-86
2021/08/09 00:51:33;;;;;;;15.05;13.45;;;;;;;22.18;100.00;100565.05;1676903;84;21130;-88
2021/08/09 00:54:02;;;;;;;16.23;14.20;;;;;;;22.18;100.00;100557.93;1588244;88;21746;-88
2021/08/09 00:56:30;;;;;;;22.37;13.80;;;;;;;22.03;100.00;100554.04;1647463;86;21564;-90
2021/08/09 00:58:58;;;;;;;16.15;13.90;;;;;;;21.95;100.00;100568.76;1647042;85;21030;-87
2021/08/09 01:01:28;;;;;;;17.37;14.13;;;;;;;21.91;100.00;100568.84;1670666;84;21248;-88
2021/08/09 01:03:57;;;;;;;14.63;13.13;;;;;;;21.92;100.00;100574.43;1700321;84;21550;-86
2021/08/09 01:06:24;;;;;;;15.23;12.70;;;;;;;21.92;100.00;100570.45;1699160;83;21161;-87
2021/08/09 01:09:21;;;;;;;14.40;13.10;;;;;;;21.92;100.00;100575.76;1694895;83;21240;-89
2021/08/09 01:12:03;;;;;;;20.37;13.03;;;;;;;21.90;100.00;100578.61;1694920;83;21562;-88
2021/08/09 01:14:53;;;;;;;;;;;;;;;21.87;100.00;100580.82;1677778;84;21210;-86
2021/08/09 01:17:25;;;;;;;14.73;13.32;;;;;;;21.86;100.00;100577.85;1653014;84;20259;-86
2021/08/09 01:20:25;;;;;;;15.40;13.80;;;;;;;21.87;100.00;100574.20;1691211;83;21826;-85
2021/08/09 01:23:08;;;;;;;14.73;13.32;;;;;;;21.82;100.00;100574.77;1584500;87;21020;-86
2021/08/09 01:26:12;;;;;;;21.48;14.80;;;;;;;21.76;100.00;100572.89;1655113;84;21075;-89
2021/08/09 01:28:40;;;;;;;19.70;14.68;;;;;;;21.75;100.00;100573.89;1653409;86;21126;-87
2021/08/09 01:31:08;;;;;;;16.57;14.20;;;;;;;21.75;100.00;100573.38;1616622;86;21004;-85
2021/08/09 01:33:39;;;;;;;16.20;14.58;;;;;;;21.70;100.00;100571.81;1679681;83;21162;-89
2021/08/09 01:36:08;;;;;;;16.65;14.15;;;;;;;21.69;100.00;100570.69;1691916;83;21549;-88
2021/08/09 01:38:38;;;;;;;18.82;14.25;;;;;;;21.67;100.00;100566.88;1682049;83;21098;-90
2021/08/09 01:41:06;;;;;;;15.03;13.50;;;;;;;21.68;100.00;100571.69;1681303;84;21059;-88
2021/08/09 01:43:35;;;;;;;15.08;13.58;;;;;;;21.69;100.00;100570.16;1683564;83;21070;-89
2021/08/09 01:46:05;;;;;;;15.38;13.78;;;;;;;21.71;100.00;100564.17;1687307;83;21441;-87
2021/08/09 01:48:32;;;;;;;19.37;14.65;;;;;;;21.67;100.00;100563.42;1679264;83;21632;-87
2021/08/09 01:51:05;;;;;;;16.45;14.30;;;;;;;21.61;100.00;100562.86;1689485;83;21114;-87
2021/08/09 01:53:33;;;;;;;19.15;13.95;;;;;;;21.56;100.00;100566.05;1684731;83;21089;-87
2021/08/09 01:56:04;;;;;;;15.38;13.62;;;;;;;21.51;100.00;100563.16;1695987;83;21059;-86
2021/08/09 01:58:31;;;;;;;16.23;14.28;;;;;;;21.46;100.00;100565.04;1681651;84;21107;-86
2021/08/09 02:00:59;;;;;;;16.67;14.18;;;;;;;21.41;100.00;100561.63;1703259;83;21110;-87
2021/08/09 02:03:26;;;;;;;18.35;13.68;;;;;;;21.36;100.00;100557.38;1650983;84;21035;-87
2021/08/09 02:05:52;;;;;;;21.02;14.95;;;;;;;21.31;100.00;100564.27;1681826;83;21193;-87
2021/08/09 02:08:20;;;;;;;25.37;15.30;;;;;;;21.28;100.00;100561.47;1671512;84;21024;-89
2021/08/09 02:11:00;;;;;;;25.95;14.90;;;;;;;21.31;100.00;100567.73;1703424;83;21055;-85
2021/08/09 02:13:49;;;;;;;16.62;13.60;;;;;;;21.36;100.00;100571.95;1672677;84;21146;-84
2021/08/09 02:16:36;;;;;;;21.73;14.03;;;;;;;21.38;100.00;100567.30;1690368;83;21032;-87
2021/08/09 02:19:29;;;;;;;15.90;14.23;;;;;;;21.35;100.00;100570.30;1663262;83;21486;-87
2021/08/09 02:22:14;;;;;;;19.02;14.05;;;;;;;21.31;100.00;100568.25;1685439;83;21505;-86
2021/08/09 02:25:00;;;;;;;16.55;14.33;;;;;;;21.35;100.00;100570.30;1673226;83;22100;-90
2021/08/09 02:27:39;;;;;;;16.75;13.78;;;;;;;21.33;100.00;100569.69;1699700;83;21211;-88
2021/08/09 02:30:12;;;;;;;14.98;13.50;;;;;;;21.29;100.00;100561.79;1669003;83;21097;-87
2021/08/09 02:32:40;;;;;;;16.70;14.13;;;;;;;21.30;100.00;100563.95;1692935;82;21070;-86
2021/08/09 02:35:11;;;;;;;17.57;13.38;;;;;;;21.34;100.00;100563.88;1690524;83;21099;-85
2021/08/09 02:37:40;;;;;;;22.80;13.88;;;;;;;21.38;100.00;100563.32;1699661;82;21972;-84
2021/08/09 02:40:08;;;;;;;17.62;14.63;;;;;;;21.41;100.00;100568.73;1691221;83;21569;-85
2021/08/09 02:42:35;;;;;;;25.95;14.38;;;;;;;21.41;100.00;100571.39;1692313;83;21617;-84
2021/08/09 02:45:05;;;;;;;15.60;13.28;;;;;;;21.40;100.00;100569.74;1690375;82;21078;-84
2021/08/09 02:47:34;;;;;;;28.02;15.05;;;;;;;21.40;100.00;100569.74;1668968;83;21056;-85
2021/08/09 02:50:02;;;;;;;18.32;13.85;;;;;;;21.36;100.00;100573.27;1691956;82;21215;-86
2021/08/09 02:52:31;;;;;;;20.27;14.85;;;;;;;21.35;100.00;100580.09;1670428;84;21097;-85
2021/08/09 02:55:01;;;;;;;35.58;16.85;;;;;;;21.38;100.00;100581.86;1688208;82;21103;-85
2021/08/09 02:57:31;;;;;;;36.60;22.48;;;;;;;21.43;100.00;100586.08;1694523;83;21106;-85
2021/08/09 02:59:58;;;;;;;67.82;37.55;;;;;;;21.54;100.00;100587.92;1698896;82;21531;-86
2021/08/09 03:02:28;;;;;;;42.23;26.75;;;;;;;21.67;100.00;100585.42;1673341;83;21816;-87
2021/08/09 03:04:56;;;;;;;25.23;16.55;;;;;;;21.73;100.00;100589.98;1695760;83;21042;-87
2021/08/09 03:07:25;;;;;;;29.57;18.07;;;;;;;21.72;100.00;100589.67;1660601;84;21050;-83
2021/08/09 03:09:53;;;;;;;22.25;15.63;;;;;;;21.76;100.00;100588.78;1691354;83;21016;-84
2021/08/09 03:12:21;;;;;;;23.98;14.75;;;;;;;21.84;100.00;100589.98;1675793;83;20963;-86
2021/08/09 03:14:52;;;;;;;15.58;13.30;;;;;;;21.90;100.00;100592.38;1684596;83;21899;-85
2021/08/09 03:17:20;;;;;;;15.32;13.72;;;;;;;21.92;100.00;100586.36;1684460;83;20990;-85
2021/08/09 03:19:47;;;;;;;16.97;12.85;;;;;;;21.88;100.00;100589.09;1692878;83;21072;-85
2021/08/09 03:22:14;;;;;;;14.98;12.73;;;;;;;21.86;100.00;100597.73;1689115;83;21078;-85
2021/08/09 03:24:41;;;;;;;15.03;13.13;;;;;;;21.85;100.00;100594.77;1703244;84;21078;-85
2021/08/09 03:27:09;;;;;;;14.80;13.22;;;;;;;21.83;100.00;100585.69;1675906;83;21129;-86
2021/08/09 03:29:36;;;;;;;14.78;13.38;;;;;;;21.79;100.00;100586.25;1671238;84;21107;-86
2021/08/09 03:32:03;;;;;;;21.30;13.65;;;;;;;21.69;100.00;100581.28;1701599;83;22457;-87
2021/08/09 03:34:31;;;;;;;15.20;13.78;;;;;;;21.62;100.00;100583.05;1689526;83;21046;-85
2021/08/09 03:36:59;;;;;;;17.12;13.68;;;;;;;21.59;100.00;100587.71;1683692;83;21038;-85
2021/08/09 03:39:26;;;;;;;15.20;13.60;;;;;;;21.57;100.00;100586.23;1679178;83;21082;-86
2021/08/09 03:41:53;;;;;;;20.55;14.50;;;;;;;21.56;100.00;100594.67;1689372;82;21086;-86
2021/08/09 03:44:20;;;;;;;15.98;14.23;;;;;;;21.56;100.00;100591.21;1698704;83;21374;-86
2021/08/09 03:46:49;;;;;;;16.10;14.33;;;;;;;21.53;100.00;100599.52;1642707;85;21036;-86
2021/08/09 03:49:17;;;;;;;17.37;14.28;;;;;;;21.49;100.00;100603.57;1698339;82;21182;-86
2021/08/09 03:51:44;;;;;;;17.37;13.72;;;;;;;21.49;100.00;100594.30;1678352;83;21167;-86
2021/08/09 03:54:11;;;;;;;17.07;15.05;;;;;;;21.48;100.00;100594.78;1685726;83;21101;-85
2021/08/09 03:56:38;;;;;;;17.27;14.28;;;;;;;21.47;100.00;100588.36;1664713;83;21012;-84
2021/08/09 03:59:05;;;;;;;19.85;14.40;;;;;;;21.48;100.00;100600.09;1675217;83;21054;-86
2021/08/09 04:01:38;;;;;;;19.80;14.50;;;;;;;21.50;100.00;100592.78;1683241;82;21144;-87
2021/08/09 04:04:02;;;;;;;18.67;14.30;;;;;;;21.55;100.00;100593.54;1653843;83;21188;-86
2021/08/09 04:06:29;;;;;;;18.73;14.05;;;;;;;21.60;100.00;100592.49;1684379;83;21072;-85
2021/08/09 04:08:57;;;;;;;17.92;14.35;;;;;;;21.63;100.00;100590.00;1679288;84;20996;-86
2021/08/09 04:11:24;;;;;;;19.60;14.30;;;;;;;21.64;100.00;100591.61;1692613;83;21138;-86
2021/08/09 04:13:51;;;;;;;19.92;15.10;;;;;;;21.65;100.00;100591.92;1693039;83;21068;-85
2021/08/09 04:16:20;;;;;;;17.45;13.50;;;;;;;21.70;100.00;100594.33;1699420;83;21658;-84
2021/08/09 04:18:49;;;;;;;18.62;13.68;;;;;;;21.75;100.00;100587.95;1703241;83;21012;-85
2021/08/09 04:21:17;;;;;;;19.48;13.35;;;;;;;21.75;100.00;100587.95;1699477;83;21019;-84
2021/08/09 04:23:44;;;;;;;20.43;13.78;;;;;;;21.73;100.00;100589.98;1684670;83;21658;-85
2021/08/09 04:26:11;;;;;;;14.78;13.05;;;;;;;21.73;100.00;100594.45;1668555;84;21103;-85
2021/08/09 04:28:38;;;;;;;18.57;13.70;;;;;;;21.75;100.00;100593.25;1697518;83;21122;-86
2021/08/09 04:31:05;;;;;;;19.42;13.70;;;;;;;21.81;100.00;100598.30;1707080;83;21044;-84
2021/08/09 04:33:45;;;;;;;16.12;13.32;;;;;;;21.86;100.00;100592.43;1678201;84;21668;-86
2021/08/09 04:36:14;;;;;;;23.80;14.53;;;;;;;21.89;100.00;100597.36;1628946;86;21086;-85
2021/08/09 04:38:42;;;;;;;15.63;13.50;;;;;;;21.91;100.00;100596.67;1594036;87;21081;-85
2021/08/09 04:41:11;;;;;;;20.88;13.05;;;;;;;21.92;100.00;100582.38;1645193;84;21161;-85
2021/08/09 04:43:41;;;;;;;18.40;13.83;;;;;;;21.94;100.00;100583.54;1692399;83;21083;-85
2021/08/09 04:46:09;;;;;;;17.48;13.68;;;;;;;21.94;100.00;100587.00;1696681;82;21068;-85
2021/08/09 04:48:38;;;;;;;19.52;14.35;;;;;;;21.96;100.00;100590.28;1683967;83;21018;-85
2021/08/09 04:51:05;;;;;;;21.87;15.18;;;;;;;21.92;100.00;100589.01;1699011;83;21585;-86
2021/08/09 04:53:32;;;;;;;17.23;13.98;;;;;;;21.91;100.00;100584.75;1708758;83;21150;-85
2021/08/09 04:55:59;;;;;;;18.65;14.75;;;;;;;21.91;100.00;100578.12;1670158;83;21072;-85
2021/08/09 04:58:26;;;;;;;22.00;15.30;;;;;;;21.90;100.00;100571.98;1629517;85;21019;-84
2021/08/09 05:00:54;;;;;;;23.18;15.23;;;;;;;21.96;100.00;100578.36;1694788;83;21525;-86
2021/08/09 05:03:21;;;;;;;21.35;16.35;;;;;;;22.03;100.00;100577.90;1701423;83;21076;-84
2021/08/09 05:05:49;;;;;;;22.80;16.50;;;;;;;22.11;100.00;100579.60;1667663;85;21170;-86
2021/08/09 05:08:17;;;;;;;22.95;15.63;;;;;;;22.16;100.00;100573.70;1661637;84;21111;-87
2021/08/09 05:10:44;;;;;;;17.90;14.80;;;;;;;22.24;100.00;100580.18;1667207;84;21103;-84
2021/08/09 05:13:12;;;;;;;21.80;15.88;;;;;;;22.31;100.00;100581.05;1673419;84;21063;-86
2021/08/09 05:15:41;;;;;;;21.35;15.15;;;;;;;22.37;100.00;100580.29;1673001;85;21098;-84
2021/08/09 05:18:12;;;;;;;24.23;16.87;;;;;;;22.44;100.00;100577.69;1668984;85;22041;-86
2021/08/09 05:20:40;;;;;;;18.07;14.93;;;;;;;22.51;100.00;100573.76;1666409;84;21035;-84
2021/08/09 05:23:07;;;;;;;23.22;16.48;;;;;;;22.56;100.00;100571.33;1696180;83;21026;-86
2021/08/09 05:25:35;;;;;;;27.13;16.60;;;;;;;22.63;100.00;100564.73;1696693;83;21063;-86
2021/08/09 05:28:02;;;;;;;27.45;18.17;;;;;;;22.71;100.00;100571.73;1638201;85;21722;-82
2021/08/09 05:30:29;;;;;;;24.70;16.27;;;;;;;22.80;100.00;100574.51;1682184;84;21072;-82
2021/08/09 05:32:58;;;;;;;31.07;17.02;;;;;;;22.87;100.00;100575.87;1652333;85;21049;-84
2021/08/09 05:35:25;;;;;;;27.05;17.07;;;;;;;22.95;100.00;100583.18;1708035;83;21127;-83
2021/08/09 05:37:55;;;;;;;28.38;18.52;;;;;;;23.03;100.00;100589.33;1681808;83;21008;-82
2021/08/09 05:40:23;;;;;;;32.38;20.52;;;;;;;23.12;100.00;100592.09;1681464;83;21120;-82
2021/08/09 05:42:50;;;;;;;27.20;20.92;;;;;;;23.21;100.00;100592.78;1685039;83;21524;-85
2021/08/09 05:45:18;;;;;;;24.20;19.65;;;;;;;23.30;100.00;100592.39;1703065;83;21451;-84
2021/08/09 05:47:46;;;;;;;28.42;19.40;;;;;;;23.38;100.00;100597.21;1691102;82;21478;-84
2021/08/09 05:50:13;;;;;;;27.95;20.82;;;;;;;23.46;100.00;100599.69;1691372;83;21105;-87
2021/08/09 05:52:42;;;;;;;25.72;19.30;;;;;;;23.52;100.00;100598.88;1664356;84;21030;-83
2021/08/09 05:55:11;;;;;;;32.35;20.75;;;;;;;23.58;100.00;100591.94;1668815;83;21559;-86
2021/08/09 05:57:39;;;;;;;25.77;22.17;;;;;;;23.68;100.00;100603.50;1656042;84;21080;-84
2021/08/09 06:00:08;;;;;;;31.60;23.35;;;;;;;23.76;100.00;100592.17;1676117;85;21115;-84
2021/08/09 06:02:45;;;;;;;34.40;26.60;;;;;;;23.86;100.00;100595.75;1632204;85;21086;-82
2021/08/09 06:05:17;;;;;;;36.05;28.00;;;;;;;23.96;100.00;100598.03;1634001;85;21645;-85
2021/08/09 06:07:46;;;;;;;37.53;31.17;;;;;;;24.03;100.00;100594.88;1690718;83;21190;-82
2021/08/09 06:10:15;;;;;;;36.63;30.77;;;;;;;24.09;100.00;100594.55;1697541;83;21040;-88
2021/08/09 06:12:43;;;;;;;39.33;33.15;;;;;;;24.15;100.00;100599.07;1660741;84;21513;-83
2021/08/09 06:15:11;;;;;;;39.45;31.45;;;;;;;24.24;100.00;100603.66;1653640;84;21126;-86
2021/08/09 06:17:40;;;;;;;36.75;31.00;;;;;;;24.35;100.00;100607.52;1663548;85;21060;-84
2021/08/09 06:20:09;;;;;;;38.20;29.18;;;;;;;24.46;100.00;100608.23;1651604;85;21350;-87
2021/08/09 06:22:36;;;;;;;40.28;31.33;;;;;;;24.58;100.00;100613.73;1678136;85;21119;-83
2021/08/09 06:25:04;;;;;;;41.73;32.40;;;;;;;24.70;100.00;100608.09;1677444;85;21090;-82
2021/08/09 06:27:31;;;;;;;37.83;32.08;;;;;;;24.80;100.00;100606.31;1671905;85;21034;-83
2021/08/09 06:30:00;;;;;;;42.45;32.73;;;;;;;24.84;100.00;100603.55;1664350;85;21090;-82
2021/08/09 06:32:29;;;;;;;36.35;31.85;;;;;;;24.87;100.00;100597.81;1647113;85;21184;-85
2021/08/09 06:34:56;;;;;;;46.63;33.28;;;;;;;24.94;100.00;100603.09;1662858;85;21094;-84
2021/08/09 06:37:24;;;;;;;42.40;33.33;;;;;;;24.98;100.00;100599.48;1634513;85;21632;-82
2021/08/09 06:39:52;;;;;;;40.12;32.93;;;;;;;25.05;100.00;100602.94;1666056;83;21641;-83
2021/08/09 06:42:19;;;;;;;46.53;34.63;;;;;;;25.11;100.00;100595.95;1707434;83;21692;-83
2021/08/09 06:44:47;;;;;;;35.65;30.95;;;;;;;25.16;100.00;100594.79;1662510;83;21063;-83
2021/08/09 06:47:14;;;;;;;44.60;33.78;;;;;;;25.20;100.00;100596.81;1711643;82;21066;-80
2021/08/09 06:49:41;;;;;;;40.20;32.20;;;;;;;25.28;100.00;100595.77;1662267;83;20983;-80
2021/08/09 06:52:08;;;;;;;38.58;29.65;;;;;;;25.34;100.00;100591.44;1711962;83;21620;-82
2021/08/09 06:54:36;;;;;;;36.60;30.10;;;;;;;25.43;100.00;100589.35;1685024;83;21553;-82
2021/08/09 06:57:06;;;;;;;41.25;30.95;;;;;;;25.49;100.00;100592.48;1700754;83;21180;-81
2021/08/09 06:59:33;;;;;;;40.03;30.60;;;;;;;25.55;100.00;100593.48;1703036;83;21592;-81
2021/08/09 07:02:03;;;;;;;45.85;31.42;;;;;;;25.61;100.00;100592.61;1693892;83;21011;-81
2021/08/09 07:04:30;;;;;;;36.25;30.15;;;;;;;25.67;100.00;100589.91;1642762;83;21518;-80
2021/08/09 07:06:57;;;;;;;36.05;30.85;;;;;;;25.78;100.00;100593.72;1666188;83;21129;-81
2021/08/09 07:09:24;;;;;;;35.38;29.30;;;;;;;25.90;100.00;100589.02;1667745;85;21156;-82
2021/08/09 07:11:51;;;;;;;36.83;28.92;;;;;;;25.97;100.00;100591.92;1693862;83;21999;-81
2021/08/09 07:14:21;;;;;;;33.15;27.90;;;;;;;26.03;100.00;100594.23;1690603;83;21055;-81
2021/08/09 07:16:50;;;;;;;36.53;28.10;;;;;;;26.10;100.00;100596.89;1702643;84;21083;-83
2021/08/09 07:19:18;;;;;;;37.23;27.35;;;;;;;26.16;100.00;100590.66;1691749;83;21553;-82
2021/08/09 07:21:46;;;;;;;34.75;26.57;;;;;;;26.26;100.00;100591.48;1634386;86;21569;-82
2021/08/09 07:24:14;;;;;;;29.23;25.77;;;;;;;26.37;100.00;100590.77;1683497;83;21018;-82
2021/08/09 07:26:41;;;;;;;36.25;27.30;;;;;;;26.52;100.00;100593.59;1632805;85;21208;-82
2021/08/09 07:29:08;;;;;;;29.90;25.30;;;;;;;26.60;100.00;100589.30;1638012;85;21082;-82
2021/08/09 07:31:36;;;;;;;30.50;25.17;;;;;;;26.68;100.00;100590.86;1654960;85;21630;-83
2021/08/09 07:34:04;;;;;;;27.95;24.30;;;;;;;26.76;100.00;100591.39;1667719;85;21130;-84
2021/08/09 07:36:31;;;;;;;30.52;25.00;;;;;;;26.86;100.00;100588.72;1642585;85;21640;-84
2021/08/09 07:38:58;;;;;;;31.33;24.50;;;;;;;26.97;100.00;100583.13;1706837;83;21002;-84
2021/08/09 07:41:26;;;;;;;26.60;23.75;;;;;;;27.05;100.00;100584.96;1708757;82;21069;-83
2021/08/09 07:43:54;;;;;;;29.75;24.77;;;;;;;27.12;100.00;100585.42;1698229;83;21041;-83
2021/08/09 07:46:24;;;;;;;28.98;22.07;;;;;;;27.19;100.00;100580.80;1701046;83;21547;-83
2021/08/09 07:48:51;;;;;;;26.37;23.52;;;;;;;27.31;100.00;100584.84;1673075;83;21084;-83
2021/08/09 07:51:18;;;;;;;28.95;23.95;;;;;;;27.39;100.00;100585.32;1690542;83;21067;-84
2021/08/09 07:53:45;;;;;;;28.65;23.73;;;;;;;27.47;100.00;100586.90;1665044;83;21785;-84
2021/08/09 07:56:13;;;;;;;27.67;22.10;;;;;;;27.54;100.00;100587.61;1683827;82;20963;-84
2021/08/09 07:58:41;;;;;;;33.05;23.73;;;;;;;27.64;100.00;100590.25;1692162;82;21115;-83
2021/08/09 08:01:08;;;;;;;25.77;21.62;;;;;;;27.76;100.00;100595.08;1699927;83;21023;-84
2021/08/09 08:03:36;;;;;;;30.08;22.82;;;;;;;27.88;100.00;100600.98;1697246;83;21067;-83
2021/08/09 08:06:04;;;;;;;27.50;21.15;;;;;;;27.97;100.00;100602.24;1700278;83;21039;-84
2021/08/09 08:08:31;;;;;;;27.95;21.23;;;;;;;28.05;100.00;100604.58;1670072;83;21569;-84
2021/08/09 08:11:00;;;;;;;27.10;20.65;;;;;;;28.12;100.00;100603.16;1638287;86;22071;-84
2021/08/09 08:13:32;;;;;;;24.55;18.98;;;;;;;28.19;100.00;100607.88;1671979;83;21121;-85
2021/08/09 08:16:01;;;;;;;23.12;19.20;;;;;;;28.29;100.00;100612.12;1695443;83;21023;-83
2021/08/09 08:18:29;;;;;;;22.48;18.00;;;;;;;28.41;100.00;100613.45;1672261;84;21064;-84
2021/08/09 08:20:56;;;;;;;23.47;19.67;;;;;;;28.53;100.00;100610.76;1704371;83;21087;-84
2021/08/09 08:23:23;;;;;;;26.05;21.00;;;;;;;28.62;100.00;100613.37;1702407;83;21884;-83
2021/08/09 08:25:52;;;;;;;29.00;21.12;;;;;;;28.71;100.00;100611.69;1689352;83;21016;-84
2021/08/09 08:28:21;;;;;;;28.95;21.45;;;;;;;28.81;100.00;100613.22;1705620;83;21069;-84
2021/08/09 08:30:53;;;;;;;26.40;22.07;;;;;;;28.91;100.00;100617.45;1711424;83;21030;-84
2021/08/09 08:33:17;;;;;;;23.20;20.60;;;;;;;29.02;100.00;100614.44;1675050;83;21075;-84
2021/08/09 08:35:44;;;;;;;25.77;21.23;;;;;;;29.08;100.00;100618.03;1701177;83;21758;-84
2021/08/09 08:38:11;;;;;;;24.55;20.80;;;;;;;29.13;100.00;100618.12;1709156;83;21045;-84
2021/08/09 08:40:49;;;;;;;27.13;20.80;;;;;;;29.20;100.00;100613.45;1689139;83;21023;-84
2021/08/09 08:43:24;;;;;;;32.60;21.05;;;;;;;29.31;100.00;100617.64;1692885;83;21502;-85
2021/08/09 08:46:00;;;;;;;24.57;19.57;;;;;;;29.36;100.00;100609.73;1674648;83;21012;-84
2021/08/09 08:48:29;;;;;;;22.25;19.25;;;;;;;29.33;100.00;100614.23;1697815;83;21201;-85
2021/08/09 08:50:57;;;;;;;29.45;19.30;;;;;;;29.28;100.00;100614.92;1665749;83;21052;-84
2021/08/09 08:53:32;;;;;;;25.48;19.75;;;;;;;29.31;100.00;100618.98;1667997;83;21046;-85
2021/08/09 08:56:00;;;;;;;23.40;19.23;;;;;;;29.40;100.00;100617.06;1682057;83;21102;-85
2021/08/09 08:58:27;;;;;;;24.55;20.00;;;;;;;29.57;100.00;100616.24;1655205;83;21082;-83
2021/08/09 09:00:54;;;;;;;22.32;19.32;;;;;;;29.71;100.00;100618.09;1672177;83;21792;-84
2021/08/09 09:03:24;;;;;;;21.42;19.23;;;;;;;29.81;100.00;100611.55;1668928;85;21197;-86
2021/08/09 09:06:05;;;;;;;21.05;18.85;;;;;;;29.90;100.00;100619.48;1671103;83;21070;-85
2021/08/09 09:08:48;;;;;;;24.27;18.82;;;;;;;29.98;100.00;100619.62;1631144;84;21521;-86
2021/08/09 09:11:26;;;;;;;22.80;19.25;;;;;;;30.11;100.00;100617.13;1644560;84;21070;-85
2021/08/09 09:13:57;;;;;;;28.73;18.77;;;;;;;30.19;100.00;100619.39;1684638;84;21622;-84
2021/08/09 09:16:25;;;;;;;20.88;18.17;;;;;;;30.19;100.00;100616.70;1685026;83;21047;-86
2021/08/09 09:18:59;;;;;;;24.77;19.10;;;;;;;30.30;100.00;100620.34;1693260;83;21533;-85
2021/08/09 09:21:36;;;;;;;25.72;19.42;;;;;;;30.39;100.00;100618.06;1708826;83;21081;-86
2021/08/09 09:24:12;;;;;;;27.50;19.55;;;;;;;30.40;100.00;100621.04;1707771;83;21053;-85
2021/08/09 09:26:43;;;;;;;19.75;17.20;;;;;;;30.42;100.00;100616.20;1707824;82;21545;-85
2021/08/09 09:29:14;;;;;;;19.50;17.40;;;;;;;30.49;100.00;100611.47;1709382;83;21128;-86
2021/08/09 09:31:42;;;;;;;;;;;;;;;30.58;100.00;100613.23;1707645;82;21030;-84
2021/08/09 09:34:15;;;;;;;20.80;17.48;;;;;;;30.56;100.00;100609.98;1686347;83;20217;-85
2021/08/09 09:36:57;;;;;;;19.45;17.48;;;;;;;30.52;100.00;100608.87;1704985;83;21082;-86
2021/08/09 09:39:38;;;;;;;23.07;18.87;;;;;;;30.55;100.00;100609.70;1702064;83;21152;-85
2021/08/09 09:42:09;;;;;;;19.98;16.77;;;;;;;30.63;100.00;100607.91;1698437;83;21093;-86
2021/08/09 09:44:40;;;;;;;28.80;19.20;;;;;;;30.69;100.00;100608.80;1703760;83;21002;-86
2021/08/09 09:47:26;;;;;;;22.90;17.65;;;;;;;30.77;100.00;100611.05;1699126;83;21094;-86
2021/08/09 09:49:59;;;;;;;23.42;16.57;;;;;;;30.89;100.00;100612.80;1702220;83;21037;-85
2021/08/09 09:52:44;;;;;;;22.22;17.52;;;;;;;31.06;100.00;100605.44;1709677;82;21883;-85
2021/08/09 09:55:11;;;;;;;19.57;16.90;;;;;;;31.25;100.00;100598.41;1683367;83;20970;-85
2021/08/09 09:57:40;;;;;;;18.57;16.50;;;;;;;31.35;100.00;100603.88;1703522;83;21106;-86
2021/08/09 10:00:12;;;;;;;19.60;16.05;;;;;;;31.41;100.00;100608.75;1708837;83;20997;-85
2021/08/09 10:02:45;;;;;;;18.70;16.12;;;;;;;31.39;100.00;100610.91;1705374;83;21022;-86
2021/08/09 10:05:14;;;;;;;21.62;17.17;;;;;;;31.36;100.00;100608.72;1706892;83;21216;-87
2021/08/09 10:07:47;;;;;;;18.23;15.63;;;;;;;31.37;100.00;100608.45;1704443;83;20970;-87
2021/08/09 10:10:15;;;;;;;20.75;16.37;;;;;;;31.45;100.00;100607.98;1710091;82;21223;-86
2021/08/09 10:12:47;;;;;;;21.33;16.42;;;;;;;31.59;100.00;100612.42;1706943;83;21078;-87
2021/08/09 10:15:18;;;;;;;18.00;15.63;;;;;;;31.73;100.00;100608.00;1703359;82;21501;-86
2021/08/09 10:17:48;;;;;;;23.52;15.72;;;;;;;31.89;100.00;100608.91;1684637;82;21645;-86
2021/08/09 10:20:17;;;;;;;20.02;15.08;;;;;;;31.95;98.88;100605.17;1667679;85;21046;-88
2021/08/09 10:23:02;;;;;;;21.00;16.48;;;;;;;31.94;93.54;100604.89;1653904;83;21226;-87
2021/08/09 10:25:49;;;;;;;18.98;15.45;;;;;;;31.88;88.29;100601.89;1679884;83;21082;-86
2021/08/09 10:28:18;;;;;;;17.52;14.70;;;;;;;31.87;91.44;100601.62;1679242;84;20987;-85
2021/08/09 10:30:47;;;;;;;19.27;15.90;;;;;;;31.89;87.98;100598.94;1668168;83;21577;-85
2021/08/09 10:33:20;;;;;;;23.22;15.93;;;;;;;31.94;89.53;100590.91;1711651;83;21126;-86
2021/08/09 10:35:54;;;;;;;21.97;15.60;;;;;;;31.98;92.75;100593.90;1705795;83;21099;-85
2021/08/09 10:38:25;;;;;;;29.48;16.17;;;;;;;32.09;91.04;100592.87;1701954;83;21090;-86
2021/08/09 10:41:10;;;;;;;;;;;;;;;32.27;93.43;100596.23;1659471;86;21087;-84
2021/08/09 10:44:08;;;;;;;21.60;15.70;;;;;;;32.44;86.94;100584.46;1631843;86;21056;-85
2021/08/09 10:46:43;;;;;;;19.35;16.80;;;;;;;32.60;89.52;100589.39;1652958;86;21071;-85
2021/08/09 10:49:35;;;;;;;24.02;17.00;;;;;;;32.79;82.54;100588.40;1661436;83;21046;-83
2021/08/09 10:52:08;;;;;;;21.07;16.90;;;;;;;32.90;86.93;100594.07;1577122;89;21091;-86
2021/08/09 10:54:36;;;;;;;23.35;15.88;;;;;;;32.98;80.28;100593.55;1666446;83;21000;-85
2021/08/09 10:57:04;;;;;;;18.52;15.30;;;;;;;32.95;73.59;100592.76;1677772;83;21224;-85
2021/08/09 10:59:49;;;;;;;18.40;15.38;;;;;;;32.94;73.78;100592.48;1689126;84;21091;-87
2021/08/09 11:02:23;;;;;;;18.95;15.23;;;;;;;33.00;79.16;100593.30;1706798;82;21046;-86
2021/08/09 11:05:21;;;;;;;19.70;15.72;;;;;;;33.12;73.57;100583.62;1716898;83;21560;-85
2021/08/09 11:08:18;;;;;;;19.97;14.80;;;;;;;33.12;73.57;100583.62;1702819;83;21065;-84
2021/08/09 11:11:02;;;;;;;21.17;14.68;;;;;;;33.16;72.89;100584.69;1683190;83;21166;-84
2021/08/09 11:13:36;;;;;;;23.43;16.83;;;;;;;33.07;77.60;100585.77;1685265;83;21090;-83
2021/08/09 11:16:05;;;;;;;16.37;14.47;;;;;;;32.96;79.03;100588.98;1664731;83;21324;-84
2021/08/09 11:18:37;;;;;;;20.75;15.48;;;;;;;32.80;71.44;100585.98;1711555;82;21055;-83